Davidson, NC

9:03 AM EDT on March 31, 2015 (GMT -0400)
Beautiful Downtown Cornelius | | Change Station
CLOSE
Current Station
Personal Weather Station
Location: Cornelius, NC
Elevation: 820 ft
Nearby Weather Stations
Active Advisory: Special Statement

Elev 820 ft 35.48 °N, 80.86 °W | Updated 8 minutes ago

Clear
Clear
46.8 °F
Feels Like 47 °F
N
0.0
Wind Variable Wind from WNW

Today
High -- | Low -- °F
--% Chance of Precip.
Yesterday
High -- | Low -- °F
Precip. -- in
7:11 AM 7:43 PM
Waxing Gibbous, 86% visible
Pressure 30.09 in
Visibility 10.0 miles
Clouds Clear
Windchill 47 °F
Dew Point 37 °F
Humidity 68%
Rainfall 0.00 in
Snow Depth Not available.
UV 2 out of 12
Pollen 9.90 out of 12
Air Quality Not available.
Flu Activity Not available.
METAR KJQF 311255Z 00000KT 10SM CLR 09/03 A3009

More Conditions Fewer Conditions

Pressure 30.09 in
Visibility 10.0 miles
Clouds Clear
Windchill 47 °F
Dew Point 37 °F
Humidity 68%
Rainfall 0.00 in
Snow Depth Not available.
UV 2 out of 12
Pollen 9.90 out of 12
Air Quality Not available.
Flu Activity Not available.
METAR KJQF 311255Z 00000KT 10SM CLR 09/03 A3009

More Conditions Fewer Conditions

10-Day Weather Forecast

Almanac

Astronomy

Mar. 31, 2015 Rise Set
Actual Time
Civil Twilight
Nautical Twilight
Astronomical Twilight
Moon
Length of Visible Light
Length of Day
Tomorrow will be .
, % of the Moon is Illuminated

Today's Extremes

State Highs State Lows

Community

WunderPhotos

Upload Photos

1,809,757 photos uploaded!

WunderBlogs® & News

Nearby

Air Quality

  Air Quality AQ Index Pollutant
Not available.

Snow Depth

Station Depth Elevation

Earthquake Activity

City Distance Mag. Time & Date
Minimum magnitude displayed is 2.5.

Coastal Water Temperatures

Place Temperature

Stations

Nearby Weather Stations

Station Location Temp. Windchill Dew Point Humidity Wind Precip. Elev Updated Type
                   
Special Statement
Statement as of 3:13 AM EDT on March 31, 2015

... Increased fire danger from noon EDT today through
this afternoon...

Dry high pressure will be over the region today which will
promote temperatures warming into the 60s to around 70 over most
of western North Carolina. In response... relative humidity values
are expected to fall into the mid 20s for several hours. Fine
fuels will be slowly drying and fuel moisture may reach critical
values during the afternoon hours. Winds will be mostly southwest
and increase to around 10 mph with some gusts to 20 mph over the
higher ridge tops. The combination of dry air and fuels will
heighten fire danger.


Cdg